Time;durP1;ratioP1;P1;durP2;ratioP2;P2;SDS_P1;SDS_P2;PMS_P1;PMS_P2;Temp;Humidity;BMP_temperature;BMP_pressure;BME280_temperature;BME280_humidity;BME280_pressure;Samples;Min_cycle;Max_cycle;Signal;HPM_P1;HPM_P2
2023/02/23 00:01:37;;;;;;;99.17;17.10;;;7.30;99.90;;;;;;5016809;28;20436;-74
2023/02/23 00:04:03;;;;;;;99.10;16.57;;;7.40;99.90;;;;;;5032520;28;20428;-75
2023/02/23 00:06:31;;;;;;;95.87;15.33;;;7.40;99.90;;;;;;5031825;28;20598;-74
2023/02/23 00:08:59;;;;;;;97.57;16.27;;;7.40;99.90;;;;;;5032153;28;20432;-74
2023/02/23 00:11:26;;;;;;;97.20;17.13;;;7.50;99.90;;;;;;5031121;28;20449;-74
2023/02/23 00:13:52;;;;;;;101.13;17.77;;;7.50;99.90;;;;;;5031341;28;20426;-74
2023/02/23 00:16:22;;;;;;;101.70;17.10;;;7.50;99.90;;;;;;5030651;28;20942;-75
2023/02/23 00:18:53;;;;;;;103.57;16.23;;;7.50;99.90;;;;;;5031136;28;20195;-74
2023/02/23 00:21:31;;;;;;;99.83;16.07;;;7.60;99.90;;;;;;5030463;28;20461;-75
2023/02/23 00:24:02;;;;;;;94.07;15.93;;;7.60;99.90;;;;;;5029729;28;20441;-75
2023/02/23 00:26:33;;;;;;;95.90;16.10;;;7.60;99.90;;;;;;5030448;28;20514;-74
2023/02/23 00:29:00;;;;;;;104.50;16.87;;;7.60;99.90;;;;;;5030913;28;20465;-76
2023/02/23 00:31:26;;;;;;;100.37;16.70;;;7.70;99.90;;;;;;5030161;28;20462;-75
2023/02/23 00:33:54;;;;;;;97.90;17.13;;;7.60;99.90;;;;;;5030918;28;20522;-74
2023/02/23 00:36:22;;;;;;;98.07;17.13;;;7.60;99.90;;;;;;5028234;28;20457;-75
2023/02/23 00:38:52;;;;;;;101.97;17.53;;;7.70;99.90;;;;;;5030868;28;20995;-75
2023/02/23 00:41:21;;;;;;;97.70;16.63;;;7.70;99.90;;;;;;5030011;28;20442;-75
2023/02/23 00:43:47;;;;;;;105.20;17.70;;;7.70;99.90;;;;;;5030702;28;20521;-74
2023/02/23 00:46:17;;;;;;;107.67;19.47;;;7.70;99.90;;;;;;5030122;28;20538;-75
2023/02/23 00:48:44;;;;;;;101.00;18.50;;;7.70;99.90;;;;;;5030586;28;20184;-75
2023/02/23 00:51:10;;;;;;;99.23;17.87;;;7.60;99.90;;;;;;5030670;28;21020;-75
2023/02/23 00:53:36;;;;;;;102.77;18.87;;;7.60;99.90;;;;;;5030508;28;20466;-77
2023/02/23 00:56:05;;;;;;;103.47;18.50;;;7.60;99.90;;;;;;5030622;28;21060;-75
2023/02/23 00:58:31;;;;;;;99.47;17.60;;;7.60;99.90;;;;;;5030021;28;20212;-74
2023/02/23 01:00:59;;;;;;;100.17;20.47;;;7.60;99.90;;;;;;5030542;28;20480;-75
2023/02/23 01:03:29;;;;;;;100.23;18.67;;;7.60;99.90;;;;;;5029972;28;20430;-74
2023/02/23 01:06:04;;;;;;;96.90;17.17;;;7.60;99.90;;;;;;5030553;28;20426;-74
2023/02/23 01:08:33;;;;;;;103.93;18.97;;;7.60;99.90;;;;;;5030059;28;20449;-75
2023/02/23 01:11:04;;;;;;;98.80;18.73;;;7.60;99.90;;;;;;5030387;28;20925;-76
2023/02/23 01:13:30;;;;;;;103.07;20.97;;;7.50;99.90;;;;;;5029906;28;20501;-75
2023/02/23 01:15:55;;;;;;;102.80;19.53;;;7.50;99.90;;;;;;5030364;28;20936;-75
2023/02/23 01:18:21;;;;;;;101.07;18.40;;;7.50;99.90;;;;;;5030191;28;20212;-75
2023/02/23 01:20:46;;;;;;;101.03;19.07;;;7.60;99.90;;;;;;5030359;28;20189;-75
2023/02/23 01:23:13;;;;;;;100.90;18.73;;;7.60;99.90;;;;;;5030396;28;20191;-75
2023/02/23 01:25:41;;;;;;;102.43;18.60;;;7.50;99.90;;;;;;5030079;28;20195;-75
2023/02/23 01:28:08;;;;;;;99.20;18.30;;;7.50;99.90;;;;;;5030399;28;20497;-75
2023/02/23 01:30:34;;;;;;;100.30;18.97;;;7.50;99.90;;;;;;5029647;28;20425;-76
2023/02/23 01:33:01;;;;;;;101.10;18.90;;;7.50;99.90;;;;;;5030462;28;20535;-76
2023/02/23 01:35:27;;;;;;;103.90;19.60;;;7.50;99.90;;;;;;5029749;28;20192;-76
2023/02/23 01:37:52;;;;;;;104.13;19.60;;;7.50;99.90;;;;;;5030019;28;20466;-77
2023/02/23 01:40:27;;;;;;;101.87;19.50;;;7.50;99.90;;;;;;5029559;28;20619;-76
2023/02/23 01:42:57;;;;;;;103.40;19.70;;;7.50;99.90;;;;;;5030405;28;20214;-76
2023/02/23 01:45:28;;;;;;;97.27;18.53;;;7.50;99.90;;;;;;5029773;28;20436;-76
2023/02/23 01:48:11;;;;;;;102.13;18.50;;;7.60;99.90;;;;;;5033038;28;20509;-76
2023/02/23 01:51:17;;;;;;;100.53;19.03;;;7.60;99.90;;;;;;5033246;28;21136;-75
2023/02/23 01:53:49;;;;;;;104.70;19.77;;;7.60;99.90;;;;;;4973198;28;20470;-76
2023/02/23 01:56:20;;;;;;;110.07;21.43;;;7.50;99.90;;;;;;5023347;28;20432;-75
2023/02/23 01:58:50;;;;;;;101.50;19.43;;;7.50;99.90;;;;;;5019192;28;20471;-76
2023/02/23 04:19:55;;;;;;;98.13;24.30;;;7.90;99.90;;;;;;5003563;28;20428;-76
2023/02/23 04:22:21;;;;;;;95.00;21.93;;;7.90;99.90;;;;;;4995753;28;20842;-76
2023/02/23 04:24:47;;;;;;;93.80;21.53;;;7.90;99.90;;;;;;4999920;28;20490;-76
2023/02/23 04:27:13;;;;;;;100.63;30.80;;;7.90;99.90;;;;;;5000322;28;20841;-77
2023/02/23 04:29:39;;;;;;;92.47;21.93;;;7.90;99.90;;;;;;5000036;28;20198;-78
2023/02/23 04:32:06;;;;;;;96.30;21.83;;;7.90;99.90;;;;;;4999828;28;20451;-76
2023/02/23 04:34:32;;;;;;;97.83;23.10;;;7.90;99.90;;;;;;5000324;28;20471;-76
2023/02/23 04:36:57;;;;;;;93.47;23.70;;;7.90;99.90;;;;;;4996132;28;20912;-76
2023/02/23 04:39:23;;;;;;;92.43;21.87;;;7.90;99.90;;;;;;5003221;28;20460;-76
2023/02/23 04:41:49;;;;;;;95.63;22.27;;;7.90;99.90;;;;;;5002824;28;20299;-75
2023/02/23 04:44:17;;;;;;;89.27;22.30;;;7.80;99.90;;;;;;5003550;28;20175;-76
2023/02/23 04:46:43;;;;;;;87.87;21.93;;;7.80;99.90;;;;;;4992908;28;20443;-76
2023/02/23 04:49:08;;;;;;;96.80;23.33;;;7.80;99.90;;;;;;4992983;28;20433;-76
2023/02/23 04:51:35;;;;;;;109.37;35.17;;;7.80;99.90;;;;;;5001713;28;20711;-77
2023/02/23 04:54:01;;;;;;;102.63;23.20;;;7.80;99.90;;;;;;5002703;28;20186;-76
2023/02/23 04:56:27;;;;;;;98.30;24.50;;;7.80;99.90;;;;;;5001166;28;20434;-75
2023/02/23 04:58:53;;;;;;;100.80;25.70;;;7.80;99.90;;;;;;4992162;28;20487;-76
2023/02/23 05:01:20;;;;;;;103.37;25.07;;;7.70;99.90;;;;;;4990692;28;20464;-76
2023/02/23 05:03:46;;;;;;;103.43;24.50;;;7.70;99.90;;;;;;4999964;28;20241;-76
2023/02/23 05:06:12;;;;;;;105.67;25.17;;;7.70;99.90;;;;;;4998202;28;20429;-75
2023/02/23 05:08:38;;;;;;;102.33;24.43;;;7.70;99.90;;;;;;5003147;28;20203;-76
2023/02/23 05:11:05;;;;;;;94.00;23.90;;;7.70;99.90;;;;;;5006173;28;20866;-77
2023/02/23 05:13:31;;;;;;;97.17;24.37;;;7.70;99.90;;;;;;5000440;28;20196;-74
2023/02/23 05:15:57;;;;;;;104.50;24.00;;;7.70;99.90;;;;;;5003606;28;20528;-76
2023/02/23 05:18:24;;;;;;;97.97;25.00;;;7.70;99.90;;;;;;4995815;28;20913;-75
2023/02/23 05:20:50;;;;;;;99.07;24.97;;;7.70;99.90;;;;;;4998241;28;20260;-75
2023/02/23 05:23:15;;;;;;;99.50;26.90;;;7.70;99.90;;;;;;5002409;28;20836;-75
2023/02/23 05:25:41;;;;;;;101.47;25.77;;;7.70;99.90;;;;;;5006810;28;20431;-76
2023/02/23 05:28:06;;;;;;;106.70;27.47;;;7.70;99.90;;;;;;5008965;28;20198;-76
2023/02/23 05:30:32;;;;;;;101.43;26.63;;;7.70;99.90;;;;;;4995754;28;20204;-77
2023/02/23 05:32:58;;;;;;;102.40;25.53;;;7.70;99.90;;;;;;5006354;28;20207;-76
2023/02/23 05:35:23;;;;;;;98.23;26.30;;;7.70;99.90;;;;;;5007378;28;20204;-77
2023/02/23 05:37:49;;;;;;;100.17;26.80;;;7.70;99.90;;;;;;5011091;28;20576;-76
2023/02/23 05:40:15;;;;;;;96.23;27.27;;;7.70;99.90;;;;;;5002034;28;20563;-77
2023/02/23 05:42:40;;;;;;;99.70;27.40;;;7.70;99.90;;;;;;5014847;28;20225;-76
2023/02/23 05:45:06;;;;;;;101.80;26.70;;;7.70;99.90;;;;;;5008212;28;20178;-76
2023/02/23 05:47:37;;;;;;;100.87;26.77;;;7.70;99.90;;;;;;5007358;28;20664;-76
2023/02/23 05:50:07;;;;;;;109.10;27.07;;;7.70;99.90;;;;;;5003513;28;20422;-76
2023/02/23 05:52:37;;;;;;;97.30;26.33;;;7.70;99.90;;;;;;5004348;28;20453;-75
2023/02/23 05:55:03;;;;;;;101.67;25.67;;;7.70;99.90;;;;;;5014691;28;20927;-77
2023/02/23 05:57:29;;;;;;;100.90;27.70;;;7.70;99.90;;;;;;4999567;28;20512;-77
2023/02/23 05:59:54;;;;;;;112.83;37.90;;;7.70;99.90;;;;;;5003750;28;20852;-75
2023/02/23 06:02:20;;;;;;;113.50;26.23;;;7.70;99.90;;;;;;5002206;28;20208;-77
2023/02/23 06:04:45;;;;;;;118.17;26.77;;;7.70;99.90;;;;;;5013910;28;20187;-76
2023/02/23 06:07:11;;;;;;;117.57;25.87;;;7.70;99.90;;;;;;5008631;28;20180;-76
2023/02/23 06:09:37;;;;;;;109.70;26.33;;;7.70;99.90;;;;;;5003576;28;20760;-76
2023/02/23 06:12:02;;;;;;;118.13;25.20;;;7.70;99.90;;;;;;5013964;28;20206;-75
2023/02/23 06:14:28;;;;;;;110.90;25.57;;;7.70;99.90;;;;;;5006547;28;20200;-75
2023/02/23 06:16:53;;;;;;;111.83;26.83;;;7.70;99.90;;;;;;4997713;28;20296;-76
2023/02/23 06:19:20;;;;;;;110.00;25.60;;;7.70;99.90;;;;;;5013890;28;20190;-76
2023/02/23 06:21:45;;;;;;;118.23;26.90;;;7.70;99.90;;;;;;5005579;28;20206;-75
2023/02/23 06:24:11;;;;;;;108.27;26.50;;;7.70;99.90;;;;;;5013628;28;20417;-74
2023/02/23 06:26:36;;;;;;;109.90;27.90;;;7.60;99.90;;;;;;5013320;28;20190;-75
2023/02/23 06:29:02;;;;;;;115.93;27.83;;;7.70;99.90;;;;;;5013282;28;20194;-75
2023/02/23 06:31:28;;;;;;;117.67;26.60;;;7.60;99.90;;;;;;5013340;28;20245;-76
2023/02/23 06:33:53;;;;;;;116.77;28.30;;;7.70;99.90;;;;;;5004279;28;20190;-74
2023/02/23 06:36:19;;;;;;;113.90;28.60;;;7.70;99.90;;;;;;5013123;28;20612;-75
2023/02/23 06:38:44;;;;;;;117.53;29.20;;;7.70;99.90;;;;;;5012920;28;20191;-76
2023/02/23 06:41:11;;;;;;;116.40;29.47;;;7.70;99.90;;;;;;5012905;28;20226;-75
2023/02/23 06:43:36;;;;;;;110.77;28.33;;;7.70;99.90;;;;;;5012172;28;20720;-74
2023/02/23 06:46:03;;;;;;;111.37;27.67;;;7.70;99.90;;;;;;5012533;28;20418;-75
2023/02/23 06:48:28;;;;;;;110.63;26.40;;;7.70;99.90;;;;;;5012814;28;20181;-74
2023/02/23 06:50:57;;;;;;;112.73;27.10;;;7.70;99.90;;;;;;5012499;28;20445;-74
2023/02/23 06:53:23;;;;;;;115.67;28.73;;;7.70;99.90;;;;;;5006303;28;20184;-74
2023/02/23 06:55:49;;;;;;;110.70;29.43;;;7.80;99.90;;;;;;5011409;28;20455;-78
2023/02/23 06:58:15;;;;;;;106.47;27.07;;;7.80;99.90;;;;;;5011326;28;21003;-76
2023/02/23 07:00:42;;;;;;;110.47;27.53;;;7.80;99.90;;;;;;5004928;28;20617;-75
2023/02/23 07:03:08;;;;;;;107.40;26.90;;;7.80;99.90;;;;;;5008166;28;20256;-76
2023/02/23 07:05:34;;;;;;;116.37;29.30;;;7.80;99.90;;;;;;5009423;28;20421;-75
2023/02/23 07:08:00;;;;;;;116.23;27.40;;;7.80;99.90;;;;;;5013183;28;20430;-77
2023/02/23 07:10:25;;;;;;;107.67;27.13;;;7.80;99.90;;;;;;5013471;28;20228;-75
2023/02/23 07:12:53;;;;;;;109.37;26.70;;;7.80;99.90;;;;;;5012421;28;20234;-74
2023/02/23 07:15:19;;;;;;;119.97;52.77;;;7.90;99.90;;;;;;5012667;28;20193;-78
2023/02/23 07:17:47;;;;;;;110.57;28.20;;;7.90;99.90;;;;;;4996114;28;20477;-76
2023/02/23 07:20:16;;;;;;;105.90;27.00;;;7.90;99.90;;;;;;5011734;28;20505;-76
2023/02/23 07:22:42;;;;;;;112.03;28.17;;;8.00;99.90;;;;;;5012106;28;20435;-75
2023/02/23 07:25:08;;;;;;;108.23;25.60;;;8.10;99.90;;;;;;5006118;28;20440;-75
2023/02/23 07:27:34;;;;;;;106.33;27.90;;;8.10;99.90;;;;;;5000859;28;20184;-77
2023/02/23 07:30:02;;;;;;;103.00;26.90;;;8.20;99.90;;;;;;5003731;28;20415;-74
2023/02/23 07:32:28;;;;;;;106.97;27.77;;;8.30;99.90;;;;;;5003861;28;20466;-75
2023/02/23 07:34:54;;;;;;;104.70;26.73;;;8.30;99.90;;;;;;5003472;28;20439;-74
2023/02/23 07:37:20;;;;;;;106.67;27.00;;;8.40;99.90;;;;;;5012189;28;20836;-75
2023/02/23 07:39:46;;;;;;;106.13;27.33;;;8.50;99.90;;;;;;5010633;28;20682;-75
2023/02/23 07:42:11;;;;;;;103.53;26.80;;;8.50;99.90;;;;;;4997917;28;20472;-75
2023/02/23 07:44:38;;;;;;;101.70;27.23;;;8.60;99.90;;;;;;5010485;28;20184;-74
2023/02/23 07:47:04;;;;;;;103.77;25.30;;;8.70;99.90;;;;;;5011852;28;20720;-75
2023/02/23 07:49:30;;;;;;;106.63;25.90;;;8.80;99.90;;;;;;5004660;28;20433;-75
2023/02/23 07:51:55;;;;;;;121.17;25.07;;;8.90;99.90;;;;;;5008235;28;20995;-75
2023/02/23 07:54:21;;;;;;;106.57;25.50;;;9.00;99.90;;;;;;5010738;28;20716;-76
2023/02/23 07:56:47;;;;;;;104.97;25.10;;;9.00;99.90;;;;;;5010216;28;20237;-76
2023/02/23 07:59:13;;;;;;;103.07;23.47;;;9.10;99.90;;;;;;5011165;28;20458;-77
2023/02/23 08:01:39;;;;;;;102.50;24.30;;;9.10;99.90;;;;;;5010801;28;20312;-75
2023/02/23 08:04:04;;;;;;;99.30;24.60;;;9.10;99.90;;;;;;5011094;28;20497;-74
2023/02/23 08:06:30;;;;;;;103.07;24.50;;;9.10;99.90;;;;;;5011646;28;20560;-74
2023/02/23 08:08:58;;;;;;;103.20;23.17;;;9.20;99.90;;;;;;5011309;28;20633;-76
2023/02/23 08:11:23;;;;;;;99.87;24.30;;;9.30;99.90;;;;;;5011827;28;20229;-75
2023/02/23 08:13:49;;;;;;;97.13;23.37;;;9.20;99.90;;;;;;4996384;28;20402;-74
2023/02/23 08:16:15;;;;;;;98.00;22.67;;;9.20;99.90;;;;;;5007382;28;20196;-75
2023/02/23 08:18:40;;;;;;;102.17;22.80;;;9.30;99.90;;;;;;5000923;28;20537;-74
2023/02/23 08:21:06;;;;;;;103.70;23.20;;;9.30;99.90;;;;;;5011267;28;20211;-75
2023/02/23 08:23:32;;;;;;;98.87;22.70;;;9.30;99.90;;;;;;5011641;28;20879;-74
2023/02/23 08:25:59;;;;;;;93.00;21.23;;;9.30;99.90;;;;;;5010975;28;20191;-74
2023/02/23 08:28:26;;;;;;;99.40;22.27;;;9.40;99.90;;;;;;5011321;28;20425;-75
2023/02/23 08:30:52;;;;;;;97.70;21.70;;;9.40;99.90;;;;;;5010667;28;20454;-74
2023/02/23 08:33:17;;;;;;;94.30;20.20;;;9.60;99.90;;;;;;5011245;28;20416;-75
2023/02/23 08:35:44;;;;;;;98.53;21.03;;;9.60;99.90;;;;;;5009602;28;20220;-76
2023/02/23 08:38:09;;;;;;;98.97;20.70;;;9.80;99.90;;;;;;5010986;28;20202;-75
2023/02/23 08:40:35;;;;;;;94.60;18.60;;;9.90;99.90;;;;;;5003701;28;20988;-75
2023/02/23 08:43:00;;;;;;;90.23;18.33;;;10.10;99.90;;;;;;5002718;28;20259;-75
2023/02/23 08:45:28;;;;;;;88.03;16.90;;;10.20;99.90;;;;;;5011019;28;20182;-75
2023/02/23 08:47:54;;;;;;;86.23;15.50;;;10.30;99.90;;;;;;5010667;28;20604;-75
2023/02/23 08:50:20;;;;;;;90.10;16.90;;;10.40;99.90;;;;;;5011037;28;20440;-74
2023/02/23 08:52:45;;;;;;;86.50;14.37;;;10.50;99.90;;;;;;5010931;28;20459;-75
2023/02/23 08:55:12;;;;;;;83.77;13.77;;;10.50;99.90;;;;;;5010779;28;20185;-74
2023/02/23 08:57:38;;;;;;;83.50;13.00;;;10.50;99.90;;;;;;5013954;28;20217;-75
2023/02/23 09:00:12;;;;;;;83.97;12.63;;;10.60;99.90;;;;;;5003916;28;20787;-74
2023/02/23 09:02:40;;;;;;;79.80;11.13;;;10.70;99.90;;;;;;5011619;28;20189;-74
2023/02/23 09:05:06;;;;;;;76.57;9.93;;;10.70;99.90;;;;;;5005652;28;20422;-74
2023/02/23 09:07:32;;;;;;;84.20;12.23;;;10.80;99.90;;;;;;5014996;28;20421;-75
2023/02/23 09:09:57;;;;;;;86.03;11.47;;;10.80;99.90;;;;;;5006907;28;20437;-75
2023/02/23 09:12:23;;;;;;;83.93;12.13;;;10.90;99.90;;;;;;5014827;28;20222;-74
2023/02/23 09:14:50;;;;;;;90.27;12.80;;;10.90;99.90;;;;;;5014799;28;20313;-75
2023/02/23 09:17:16;;;;;;;79.00;10.40;;;10.90;99.90;;;;;;5014577;28;20213;-75
2023/02/23 09:19:42;;;;;;;105.97;47.30;;;11.00;99.90;;;;;;5014404;28;20417;-76
2023/02/23 09:22:07;;;;;;;88.93;11.80;;;11.10;99.90;;;;;;5014936;28;20451;-76
2023/02/23 09:24:33;;;;;;;83.47;10.53;;;11.10;99.90;;;;;;5007096;28;20186;-75
2023/02/23 09:26:59;;;;;;;81.70;10.83;;;11.20;99.90;;;;;;5014245;28;20178;-75
2023/02/23 09:29:25;;;;;;;85.60;11.87;;;11.30;99.90;;;;;;5014679;28;20269;-75
2023/02/23 09:31:51;;;;;;;83.10;10.70;;;11.50;99.90;;;;;;5014033;28;20228;-76
2023/02/23 09:34:17;;;;;;;81.20;11.27;;;11.70;99.90;;;;;;5014593;28;20551;-75
2023/02/23 09:36:43;;;;;;;82.27;9.47;;;11.90;99.90;;;;;;5014105;28;20833;-75
2023/02/23 09:39:09;;;;;;;83.60;10.73;;;12.10;99.90;;;;;;5014331;28;20414;-76
2023/02/23 09:42:00;;;;;;;82.87;10.60;;;12.40;99.90;;;;;;4999535;28;20246;-75
2023/02/23 09:44:46;;;;;;;99.10;28.10;;;12.70;99.90;;;;;;5001183;28;20178;-75
2023/02/23 09:47:39;;;;;;;83.13;10.37;;;13.00;99.90;;;;;;5006822;28;20424;-75
2023/02/23 09:50:15;;;;;;;102.57;33.23;;;13.00;99.90;;;;;;5013919;28;20421;-75
2023/02/23 09:52:44;;;;;;;86.67;12.10;;;13.10;99.90;;;;;;5014307;28;20811;-75
2023/02/23 09:55:14;;;;;;;81.37;10.10;;;13.10;99.90;;;;;;5010721;28;20437;-75
2023/02/23 09:57:45;;;;;;;82.40;10.83;;;13.10;99.90;;;;;;5010640;28;20467;-77
2023/02/23 10:00:24;;;;;;;98.07;24.63;;;13.10;99.90;;;;;;5006225;28;20491;-75
2023/02/23 10:03:14;;;;;;;83.07;9.80;;;13.10;99.90;;;;;;5013851;28;20410;-75
2023/02/23 10:05:46;;;;;;;82.53;9.80;;;13.20;99.90;;;;;;5014028;28;20818;-75
2023/02/23 10:08:31;;;;;;;85.07;9.63;;;13.40;99.90;;;;;;5002508;28;20418;-74
2023/02/23 10:11:16;;;;;;;84.37;10.90;;;13.50;99.90;;;;;;5010435;28;20459;-74
2023/02/23 10:14:00;;;;;;;86.57;11.40;;;13.60;99.90;;;;;;5010793;28;20918;-75
2023/02/23 10:16:47;;;;;;;85.37;12.00;;;13.60;99.90;;;;;;5007929;28;20445;-75
2023/02/23 10:19:33;;;;;;;139.33;81.37;;;13.80;99.90;;;;;;5005998;28;20426;-75
2023/02/23 10:22:03;;;;;;;94.10;16.13;;;13.70;99.90;;;;;;5013415;28;21032;-75
2023/02/23 10:24:37;;;;;;;93.27;14.40;;;13.70;99.90;;;;;;5012807;28;20422;-75
2023/02/23 10:27:15;;;;;;;87.83;13.90;;;13.60;99.90;;;;;;5013357;28;20457;-74
2023/02/23 10:29:53;;;;;;;92.43;16.50;;;13.50;99.90;;;;;;5005860;28;20556;-75
2023/02/23 10:32:48;;;;;;;97.27;16.80;;;13.50;99.90;;;;;;5006629;28;20463;-75
2023/02/23 10:35:19;;;;;;;91.43;15.40;;;13.40;99.90;;;;;;4998572;28;20420;-75
2023/02/23 10:37:46;;;;;;;90.87;14.90;;;13.30;99.90;;;;;;5007676;28;20515;-77
2023/02/23 10:40:20;;;;;;;97.00;14.73;;;13.10;99.90;;;;;;5003183;28;20423;-75
2023/02/23 10:42:46;;;;;;;91.03;14.57;;;13.10;99.90;;;;;;4993294;28;20418;-76
2023/02/23 10:45:23;;;;;;;91.20;15.83;;;13.00;99.90;;;;;;5013488;28;20422;-76
2023/02/23 10:48:01;;;;;;;91.60;15.77;;;13.00;99.90;;;;;;5013070;28;20183;-75
2023/02/23 10:50:27;;;;;;;95.90;15.37;;;13.00;99.90;;;;;;5013145;28;20453;-75
2023/02/23 10:53:03;;;;;;;96.93;15.73;;;13.10;99.90;;;;;;5013343;28;20418;-77
2023/02/23 10:55:32;;;;;;;90.90;15.70;;;13.20;99.90;;;;;;5012683;28;20917;-74
2023/02/23 10:58:07;;;;;;;88.60;12.90;;;13.20;99.90;;;;;;5013144;28;20461;-78
2023/02/23 11:00:35;;;;;;;90.57;12.10;;;13.10;99.90;;;;;;5012855;28;20465;-75
2023/02/23 11:03:05;;;;;;;143.57;84.43;;;13.10;99.90;;;;;;4997156;28;20426;-75
2023/02/23 11:05:55;;;;;;;85.50;12.97;;;13.20;99.90;;;;;;5012846;28;20784;-75
2023/02/23 11:08:24;;;;;;;86.90;12.00;;;13.20;99.90;;;;;;5005376;28;20487;-75
2023/02/23 11:11:01;;;;;;;89.33;12.37;;;13.20;99.90;;;;;;5004380;28;20576;-76
2023/02/23 11:13:32;;;;;;;85.23;12.00;;;13.30;99.90;;;;;;5012600;28;20421;-75
2023/02/23 11:16:12;;;;;;;131.03;50.30;;;13.30;99.90;;;;;;5010988;28;20422;-75
2023/02/23 11:18:48;;;;;;;86.93;12.27;;;13.50;99.90;;;;;;5007801;28;20465;-75
2023/02/23 11:21:21;;;;;;;88.57;10.57;;;13.70;99.90;;;;;;5012298;28;20436;-75
2023/02/23 11:23:51;;;;;;;83.20;10.07;;;13.80;99.90;;;;;;5005033;28;20909;-75
2023/02/23 11:26:43;;;;;;;82.67;10.83;;;14.00;99.90;;;;;;5012401;28;20405;-75
2023/02/23 11:29:21;;;;;;;81.87;9.70;;;14.20;99.90;;;;;;5000947;28;20436;-75
2023/02/23 11:31:53;;;;;;;97.83;19.53;;;14.30;99.90;;;;;;5004574;28;20462;-75
2023/02/23 11:34:31;;;;;;;86.47;9.80;;;14.40;99.90;;;;;;4998376;28;20429;-77
2023/02/23 11:37:20;;;;;;;80.57;7.60;;;14.50;99.90;;;;;;5004482;28;20458;-75
2023/02/23 11:39:58;;;;;;;82.50;7.57;;;14.70;99.90;;;;;;5012235;28;20430;-76
2023/02/23 11:42:26;;;;;;;80.80;6.70;;;14.80;99.90;;;;;;5011901;28;20503;-75
2023/02/23 11:45:03;;;;;;;82.10;7.53;;;14.90;99.90;;;;;;5011923;28;20994;-76
2023/02/23 11:47:30;;;;;;;81.37;6.90;;;14.80;99.90;;;;;;5011955;28;20905;-73
2023/02/23 11:49:56;;;;;;;82.27;8.20;;;14.70;99.90;;;;;;5003963;28;20476;-75
2023/02/23 11:52:24;;;;;;;82.30;7.43;;;14.80;99.90;;;;;;5011791;28;20481;-75
2023/02/23 11:55:04;;;;;;;87.10;8.43;;;14.90;99.90;;;;;;5004020;28;20521;-73
2023/02/23 11:57:33;;;;;;;92.20;10.00;;;14.90;99.90;;;;;;5005725;28;20465;-74
2023/02/23 12:00:12;;;;;;;85.60;9.53;;;15.00;99.90;;;;;;5010701;28;20430;-76
2023/02/23 12:02:52;;;;;;;84.43;7.63;;;14.90;99.90;;;;;;4998891;28;20583;-76
2023/02/23 12:05:23;;;;;;;82.87;7.33;;;15.00;99.90;;;;;;5003887;28;20921;-75
2023/02/23 12:07:51;;;;;;;82.60;6.67;;;15.10;99.90;;;;;;5011784;28;20421;-76
2023/02/23 12:10:28;;;;;;;87.60;8.60;;;15.20;99.90;;;;;;5010409;28;20476;-75
2023/02/23 12:13:26;;;;;;;82.63;7.33;;;15.60;99.90;;;;;;5011396;28;20422;-76
2023/02/23 12:16:02;;;;;;;87.70;8.13;;;15.60;99.90;;;;;;5011434;28;20680;-75
2023/02/23 12:18:27;;;;;;;82.27;7.23;;;15.60;99.90;;;;;;5004975;28;20475;-75
2023/02/23 12:20:56;;;;;;;81.30;6.90;;;15.40;99.90;;;;;;5003366;28;20528;-76
2023/02/23 12:23:26;;;;;;;86.23;7.17;;;15.30;99.90;;;;;;5011525;28;20237;-74
2023/02/23 12:26:00;;;;;;;381.63;92.97;;;15.30;99.90;;;;;;5011108;28;20448;-75
2023/02/23 12:28:46;;;;;;;7.33;4.40;;;15.20;99.90;;;;;;4996587;28;20453;-76
2023/02/23 12:31:43;;;;;;;7.70;4.80;;;15.20;99.90;;;;;;5010062;28;20552;-74
2023/02/23 12:34:21;;;;;;;9.80;4.83;;;15.30;99.90;;;;;;5011150;28;20418;-75
2023/02/23 12:36:54;;;;;;;9.03;5.63;;;15.30;99.90;;;;;;5011374;28;20857;-75
2023/02/23 12:39:34;;;;;;;12.43;7.00;;;15.30;99.90;;;;;;5011104;28;20421;-76
2023/02/23 12:42:28;;;;;;;15.40;6.97;;;15.00;99.90;;;;;;5011026;28;20548;-76
2023/02/23 12:45:04;;;;;;;12.33;6.47;;;14.90;99.90;;;;;;5011114;28;20465;-76
2023/02/23 12:47:44;;;;;;;9.50;7.20;;;14.70;99.90;;;;;;5011138;28;20787;-75
2023/02/23 12:50:37;;;;;;;13.07;7.77;;;14.50;99.90;;;;;;5003141;28;20418;-76
2023/02/23 12:53:25;;;;;;;12.87;7.00;;;14.30;99.90;;;;;;4992099;28;20441;-76
2023/02/23 12:56:06;;;;;;;9.60;6.17;;;14.20;99.90;;;;;;5011251;28;20964;-76
2023/02/23 12:59:00;;;;;;;15.27;5.63;;;14.20;99.90;;;;;;4992142;28;20469;-75
2023/02/23 13:01:35;;;;;;;7.03;4.97;;;14.20;99.90;;;;;;4961329;28;20565;-73
2023/02/23 13:04:23;;;;;;;8.50;6.27;;;14.20;99.90;;;;;;5000794;28;20471;-73
2023/02/23 13:06:58;;;;;;;7.90;6.27;;;14.10;99.90;;;;;;5003309;28;20417;-74
2023/02/23 13:09:36;;;;;;;11.63;5.73;;;14.10;99.90;;;;;;5003374;28;20929;-74
2023/02/23 13:12:25;;;;;;;8.93;6.00;;;14.00;99.90;;;;;;5009979;28;20433;-74
2023/02/23 13:15:21;;;;;;;14.13;6.07;;;14.00;99.90;;;;;;5000764;28;20421;-74
2023/02/23 13:18:05;;;;;;;11.30;4.53;;;14.00;99.90;;;;;;5007354;28;20465;-73
2023/02/23 13:20:43;;;;;;;6.13;4.50;;;14.00;99.90;;;;;;5010883;28;20403;-73
2023/02/23 13:23:29;;;;;;;6.90;4.67;;;13.90;99.90;;;;;;5010796;28;20468;-74
2023/02/23 13:26:18;;;;;;;12.83;5.17;;;13.90;99.90;;;;;;4994841;28;20425;-73
2023/02/23 13:28:57;;;;;;;7.63;4.20;;;13.90;99.90;;;;;;4979191;28;21006;-74
2023/02/23 13:31:33;;;;;;;6.83;4.50;;;13.90;99.90;;;;;;5007300;28;20505;-74
2023/02/23 13:34:00;;;;;;;8.20;4.00;;;13.90;99.90;;;;;;5006532;28;20414;-74
2023/02/23 13:36:28;;;;;;;13.37;5.10;;;13.80;99.90;;;;;;5009473;28;20568;-73
2023/02/23 13:39:26;;;;;;;10.40;4.63;;;13.80;99.90;;;;;;5003919;28;20476;-73
2023/02/23 13:42:16;;;;;;;7.90;4.40;;;13.90;99.90;;;;;;5002183;28;21033;-74
2023/02/23 13:44:57;;;;;;;7.80;4.30;;;13.80;99.90;;;;;;5009869;28;20880;-75
2023/02/23 13:47:32;;;;;;;9.03;6.40;;;13.80;99.90;;;;;;5010491;28;20417;-75
2023/02/23 13:50:18;;;;;;;7.33;5.17;;;13.90;99.90;;;;;;5007514;28;20810;-76
2023/02/23 13:52:45;;;;;;;6.57;3.93;;;13.90;99.90;;;;;;5014284;28;20516;-76
2023/02/23 13:55:25;;;;;;;4.60;3.30;;;13.90;99.90;;;;;;5005687;28;20468;-75
2023/02/23 13:57:53;;;;;;;5.77;3.30;;;14.00;99.90;;;;;;5013822;28;20992;-75
2023/02/23 14:00:20;;;;;;;11.80;4.30;;;13.90;99.90;;;;;;5010945;28;20425;-76
2023/02/23 14:02:47;;;;;;;8.20;3.47;;;13.90;99.90;;;;;;5013757;28;20435;-75
2023/02/23 14:05:18;;;;;;;8.60;4.10;;;13.80;99.90;;;;;;5013428;28;20758;-77
2023/02/23 14:07:47;;;;;;;7.53;4.00;;;13.80;99.90;;;;;;5009423;28;20426;-75
2023/02/23 14:10:22;;;;;;;7.83;4.50;;;13.80;99.90;;;;;;5012999;28;20425;-75
2023/02/23 14:13:05;;;;;;;4.90;3.70;;;13.80;99.90;;;;;;5004708;28;20421;-75
2023/02/23 14:15:34;;;;;;;12.13;3.70;;;13.80;99.90;;;;;;5006470;28;20577;-75
2023/02/23 14:18:02;;;;;;;6.10;3.33;;;13.80;99.90;;;;;;5012070;28;20476;-75
2023/02/23 14:20:53;;;;;;;7.77;3.20;;;13.90;99.90;;;;;;4996608;28;20422;-75
2023/02/23 14:23:18;;;;;;;2.60;2.40;;;13.80;99.90;;;;;;5005357;28;20831;-75
2023/02/23 14:25:44;;;;;;;4.73;2.50;;;13.70;99.90;;;;;;5011372;28;20429;-75
2023/02/23 14:28:32;;;;;;;7.60;3.27;;;13.70;99.90;;;;;;5022262;28;20185;-75
2023/02/23 14:31:09;;;;;;;6.87;3.83;;;13.60;99.90;;;;;;5013242;28;20240;-75
2023/02/23 14:33:35;;;;;;;15.03;3.83;;;13.60;99.90;;;;;;5007626;28;20421;-73
2023/02/23 14:36:21;;;;;;;3.40;3.10;;;13.60;99.90;;;;;;5010747;28;20683;-75
2023/02/23 14:39:07;;;;;;;5.00;2.70;;;13.70;99.90;;;;;;5007254;28;20922;-75
2023/02/23 14:41:32;;;;;;;5.40;3.90;;;13.60;99.90;;;;;;5009140;28;20490;-74
2023/02/23 14:44:04;;;;;;;6.97;3.50;;;13.60;99.90;;;;;;5009016;28;20972;-74
2023/02/23 14:46:30;;;;;;;5.73;3.00;;;13.50;99.90;;;;;;5005704;28;20206;-74
2023/02/23 14:48:59;;;;;;;4.90;3.00;;;13.50;99.90;;;;;;5013291;28;20423;-72
2023/02/23 14:51:43;;;;;;;5.63;3.00;;;13.50;99.90;;;;;;5013482;28;20442;-72
2023/02/23 14:54:28;;;;;;;4.40;3.03;;;13.60;99.90;;;;;;5006305;28;20469;-75
2023/02/23 14:56:57;;;;;;;7.73;3.40;;;13.60;99.90;;;;;;5005175;28;20455;-74
2023/02/23 14:59:37;;;;;;;7.43;3.97;;;13.70;99.90;;;;;;5011829;28;20432;-75
2023/02/23 15:02:19;;;;;;;9.57;4.27;;;13.60;99.90;;;;;;5013062;28;20495;-75
2023/02/23 15:04:44;;;;;;;6.93;4.00;;;13.60;99.90;;;;;;5007348;28;20501;-76
2023/02/23 15:07:32;;;;;;;7.33;5.17;;;13.60;99.90;;;;;;4992730;28;20510;-78
2023/02/23 15:10:00;;;;;;;8.20;5.50;;;13.50;99.90;;;;;;4994885;28;20386;-73
2023/02/23 15:12:33;;;;;;;7.00;4.30;;;13.50;99.90;;;;;;5009529;28;20807;-73